sensor_id;sensor_type;location;lat;lon;timestamp;temperature;humidity
15394;DHT22;7795;47.986;11.868;2024-01-25T00:01:57;11.50;71.60
15394;DHT22;7795;47.986;11.868;2024-01-25T00:04:22;11.50;71.50
15394;DHT22;7795;47.986;11.868;2024-01-25T00:06:48;11.50;71.60
15394;DHT22;7795;47.986;11.868;2024-01-25T00:09:14;11.50;71.60
15394;DHT22;7795;47.986;11.868;2024-01-25T00:11:39;11.50;71.60
15394;DHT22;7795;47.986;11.868;2024-01-25T00:14:05;11.50;71.60
15394;DHT22;7795;47.986;11.868;2024-01-25T00:16:32;11.50;71.60
15394;DHT22;7795;47.986;11.868;2024-01-25T00:18:58;11.50;71.70
15394;DHT22;7795;47.986;11.868;2024-01-25T00:21:24;11.50;71.70
15394;DHT22;7795;47.986;11.868;2024-01-25T00:23:49;11.50;71.70
15394;DHT22;7795;47.986;11.868;2024-01-25T00:26:15;11.50;71.80
15394;DHT22;7795;47.986;11.868;2024-01-25T00:28:41;11.50;71.80
15394;DHT22;7795;47.986;11.868;2024-01-25T00:31:06;11.50;71.80
15394;DHT22;7795;47.986;11.868;2024-01-25T00:33:33;11.50;72.00
15394;DHT22;7795;47.986;11.868;2024-01-25T00:36:00;11.50;72.00
15394;DHT22;7795;47.986;11.868;2024-01-25T00:38:26;11.50;72.10
15394;DHT22;7795;47.986;11.868;2024-01-25T00:40:52;11.50;72.10
15394;DHT22;7795;47.986;11.868;2024-01-25T00:43:19;11.40;72.00
15394;DHT22;7795;47.986;11.868;2024-01-25T00:45:45;11.50;72.20
15394;DHT22;7795;47.986;11.868;2024-01-25T00:48:12;11.40;72.10
15394;DHT22;7795;47.986;11.868;2024-01-25T00:50:40;11.50;72.30
15394;DHT22;7795;47.986;11.868;2024-01-25T00:53:06;11.40;72.70
15394;DHT22;7795;47.986;11.868;2024-01-25T00:55:33;11.40;72.30
15394;DHT22;7795;47.986;11.868;2024-01-25T00:57:59;11.40;72.40
15394;DHT22;7795;47.986;11.868;2024-01-25T01:00:26;11.40;72.40
15394;DHT22;7795;47.986;11.868;2024-01-25T01:02:53;11.40;72.50
15394;DHT22;7795;47.986;11.868;2024-01-25T01:05:19;11.40;72.50
15394;DHT22;7795;47.986;11.868;2024-01-25T01:07:47;11.40;72.60
15394;DHT22;7795;47.986;11.868;2024-01-25T01:10:13;11.40;72.60
15394;DHT22;7795;47.986;11.868;2024-01-25T01:12:39;11.30;72.50
15394;DHT22;7795;47.986;11.868;2024-01-25T01:15:06;11.40;72.50
15394;DHT22;7795;47.986;11.868;2024-01-25T01:17:31;11.40;73.30
15394;DHT22;7795;47.986;11.868;2024-01-25T01:19:57;11.40;72.50
15394;DHT22;7795;47.986;11.868;2024-01-25T01:22:23;11.40;72.50
15394;DHT22;7795;47.986;11.868;2024-01-25T01:24:50;11.40;72.50
15394;DHT22;7795;47.986;11.868;2024-01-25T01:27:16;11.40;72.50
15394;DHT22;7795;47.986;11.868;2024-01-25T01:29:41;11.30;72.40
15394;DHT22;7795;47.986;11.868;2024-01-25T01:32:07;11.30;72.50
15394;DHT22;7795;47.986;11.868;2024-01-25T01:34:33;11.30;72.40
15394;DHT22;7795;47.986;11.868;2024-01-25T01:36:59;11.30;72.40
15394;DHT22;7795;47.986;11.868;2024-01-25T01:39:25;11.40;72.40
15394;DHT22;7795;47.986;11.868;2024-01-25T01:41:52;11.40;72.40
15394;DHT22;7795;47.986;11.868;2024-01-25T01:44:17;11.40;72.40
15394;DHT22;7795;47.986;11.868;2024-01-25T01:46:43;11.40;72.40
15394;DHT22;7795;47.986;11.868;2024-01-25T01:49:11;11.30;72.40
15394;DHT22;7795;47.986;11.868;2024-01-25T01:51:38;11.30;72.40
15394;DHT22;7795;47.986;11.868;2024-01-25T01:54:06;11.30;73.10
15394;DHT22;7795;47.986;11.868;2024-01-25T01:56:33;11.40;72.40
15394;DHT22;7795;47.986;11.868;2024-01-25T01:59:01;11.40;72.40
15394;DHT22;7795;47.986;11.868;2024-01-25T02:01:27;11.40;72.40
15394;DHT22;7795;47.986;11.868;2024-01-25T02:03:53;11.40;72.40
15394;DHT22;7795;47.986;11.868;2024-01-25T02:06:19;11.40;72.30
15394;DHT22;7795;47.986;11.868;2024-01-25T02:08:46;11.40;72.30
15394;DHT22;7795;47.986;11.868;2024-01-25T02:11:12;11.40;72.40
15394;DHT22;7795;47.986;11.868;2024-01-25T02:13:38;11.40;72.40
15394;DHT22;7795;47.986;11.868;2024-01-25T02:16:07;11.40;72.30
15394;DHT22;7795;47.986;11.868;2024-01-25T02:18:33;11.40;72.30
15394;DHT22;7795;47.986;11.868;2024-01-25T02:20:59;11.40;72.30
15394;DHT22;7795;47.986;11.868;2024-01-25T02:23:26;11.40;72.30
15394;DHT22;7795;47.986;11.868;2024-01-25T02:25:52;11.40;72.30
15394;DHT22;7795;47.986;11.868;2024-01-25T02:28:18;11.40;72.40
15394;DHT22;7795;47.986;11.868;2024-01-25T02:30:43;11.40;72.40
15394;DHT22;7795;47.986;11.868;2024-01-25T02:33:09;11.40;72.40
15394;DHT22;7795;47.986;11.868;2024-01-25T02:35:35;11.30;72.40
15394;DHT22;7795;47.986;11.868;2024-01-25T02:38:01;11.40;72.60
15394;DHT22;7795;47.986;11.868;2024-01-25T02:40:28;11.40;72.70
15394;DHT22;7795;47.986;11.868;2024-01-25T02:42:53;11.40;72.70
15394;DHT22;7795;47.986;11.868;2024-01-25T02:45:19;11.40;72.70
15394;DHT22;7795;47.986;11.868;2024-01-25T02:47:45;11.40;72.70
15394;DHT22;7795;47.986;11.868;2024-01-25T02:50:11;11.30;72.70
15394;DHT22;7795;47.986;11.868;2024-01-25T02:52:36;11.40;72.80
15394;DHT22;7795;47.986;11.868;2024-01-25T02:55:03;11.40;72.80
15394;DHT22;7795;47.986;11.868;2024-01-25T02:57:30;11.40;72.80
15394;DHT22;7795;47.986;11.868;2024-01-25T02:59:56;11.40;72.90
15394;DHT22;7795;47.986;11.868;2024-01-25T03:02:22;11.40;72.80
15394;DHT22;7795;47.986;11.868;2024-01-25T03:04:48;11.30;72.80
15394;DHT22;7795;47.986;11.868;2024-01-25T03:07:14;11.40;72.90
15394;DHT22;7795;47.986;11.868;2024-01-25T03:09:40;11.30;72.90
15394;DHT22;7795;47.986;11.868;2024-01-25T03:12:06;11.40;73.00
15394;DHT22;7795;47.986;11.868;2024-01-25T03:14:33;11.40;73.00
15394;DHT22;7795;47.986;11.868;2024-01-25T03:16:58;11.40;73.10
15394;DHT22;7795;47.986;11.868;2024-01-25T03:19:25;11.40;73.10
15394;DHT22;7795;47.986;11.868;2024-01-25T03:21:51;11.40;73.20
15394;DHT22;7795;47.986;11.868;2024-01-25T03:24:17;11.40;73.20
15394;DHT22;7795;47.986;11.868;2024-01-25T03:26:43;11.40;73.20
15394;DHT22;7795;47.986;11.868;2024-01-25T03:29:08;11.40;74.00
15394;DHT22;7795;47.986;11.868;2024-01-25T03:31:36;11.40;73.40
15394;DHT22;7795;47.986;11.868;2024-01-25T03:34:03;11.40;73.50
15394;DHT22;7795;47.986;11.868;2024-01-25T03:36:29;11.30;73.50
15394;DHT22;7795;47.986;11.868;2024-01-25T03:38:54;11.40;73.70
15394;DHT22;7795;47.986;11.868;2024-01-25T03:41:20;11.30;73.70
15394;DHT22;7795;47.986;11.868;2024-01-25T03:43:46;11.40;73.90
15394;DHT22;7795;47.986;11.868;2024-01-25T03:46:12;11.30;74.70
15394;DHT22;7795;47.986;11.868;2024-01-25T03:48:39;11.30;74.00
15394;DHT22;7795;47.986;11.868;2024-01-25T03:51:05;11.30;74.10
15394;DHT22;7795;47.986;11.868;2024-01-25T03:53:31;11.30;74.20
15394;DHT22;7795;47.986;11.868;2024-01-25T03:55:56;11.30;74.10
15394;DHT22;7795;47.986;11.868;2024-01-25T03:58:22;11.20;74.20
15394;DHT22;7795;47.986;11.868;2024-01-25T04:00:48;11.20;74.30
15394;DHT22;7795;47.986;11.868;2024-01-25T04:03:14;11.20;74.40
15394;DHT22;7795;47.986;11.868;2024-01-25T04:05:41;11.20;74.60
15394;DHT22;7795;47.986;11.868;2024-01-25T04:08:07;11.20;74.60
15394;DHT22;7795;47.986;11.868;2024-01-25T04:10:33;11.20;74.70
15394;DHT22;7795;47.986;11.868;2024-01-25T04:12:59;11.10;74.70
15394;DHT22;7795;47.986;11.868;2024-01-25T04:15:30;11.20;74.80
15394;DHT22;7795;47.986;11.868;2024-01-25T04:17:55;11.10;74.80
15394;DHT22;7795;47.986;11.868;2024-01-25T04:20:21;11.20;74.90
15394;DHT22;7795;47.986;11.868;2024-01-25T04:22:48;11.20;75.00
15394;DHT22;7795;47.986;11.868;2024-01-25T04:25:15;11.10;74.90
15394;DHT22;7795;47.986;11.868;2024-01-25T04:27:41;11.10;75.00
15394;DHT22;7795;47.986;11.868;2024-01-25T04:30:07;11.10;74.80
15394;DHT22;7795;47.986;11.868;2024-01-25T04:32:33;11.10;75.00
15394;DHT22;7795;47.986;11.868;2024-01-25T04:34:59;11.10;75.00
15394;DHT22;7795;47.986;11.868;2024-01-25T04:37:25;11.10;75.10
15394;DHT22;7795;47.986;11.868;2024-01-25T04:39:52;11.10;75.00
15394;DHT22;7795;47.986;11.868;2024-01-25T04:42:18;11.10;75.00
15394;DHT22;7795;47.986;11.868;2024-01-25T04:44:44;11.10;75.00
15394;DHT22;7795;47.986;11.868;2024-01-25T04:47:09;11.10;75.00
15394;DHT22;7795;47.986;11.868;2024-01-25T04:49:35;11.10;75.10
15394;DHT22;7795;47.986;11.868;2024-01-25T04:52:01;11.10;75.10
15394;DHT22;7795;47.986;11.868;2024-01-25T04:54:27;11.00;75.10
15394;DHT22;7795;47.986;11.868;2024-01-25T04:56:54;11.00;75.10
15394;DHT22;7795;47.986;11.868;2024-01-25T04:59:20;11.00;75.10
15394;DHT22;7795;47.986;11.868;2024-01-25T05:01:46;11.00;75.20
15394;DHT22;7795;47.986;11.868;2024-01-25T05:04:12;11.00;75.20
15394;DHT22;7795;47.986;11.868;2024-01-25T05:06:37;10.90;75.20
15394;DHT22;7795;47.986;11.868;2024-01-25T05:09:03;10.90;75.20
15394;DHT22;7795;47.986;11.868;2024-01-25T05:11:29;10.90;75.10
15394;DHT22;7795;47.986;11.868;2024-01-25T05:13:56;10.90;75.10
15394;DHT22;7795;47.986;11.868;2024-01-25T05:16:22;10.90;75.20
15394;DHT22;7795;47.986;11.868;2024-01-25T05:18:47;10.90;75.10
15394;DHT22;7795;47.986;11.868;2024-01-25T05:21:13;10.80;75.00
15394;DHT22;7795;47.986;11.868;2024-01-25T05:23:39;10.80;75.00
15394;DHT22;7795;47.986;11.868;2024-01-25T05:26:05;10.90;75.10
15394;DHT22;7795;47.986;11.868;2024-01-25T05:28:31;10.90;75.10
15394;DHT22;7795;47.986;11.868;2024-01-25T05:30:59;10.80;75.10
15394;DHT22;7795;47.986;11.868;2024-01-25T05:33:24;10.80;75.10
15394;DHT22;7795;47.986;11.868;2024-01-25T05:35:50;10.90;75.10
15394;DHT22;7795;47.986;11.868;2024-01-25T05:38:16;10.80;75.10
15394;DHT22;7795;47.986;11.868;2024-01-25T05:40:42;10.80;75.30
15394;DHT22;7795;47.986;11.868;2024-01-25T05:43:07;10.80;75.10
15394;DHT22;7795;47.986;11.868;2024-01-25T05:45:33;10.80;75.20
15394;DHT22;7795;47.986;11.868;2024-01-25T05:48:00;10.80;75.20
15394;DHT22;7795;47.986;11.868;2024-01-25T05:50:26;10.90;75.40
15394;DHT22;7795;47.986;11.868;2024-01-25T05:52:52;10.80;75.30
15394;DHT22;7795;47.986;11.868;2024-01-25T05:55:17;10.90;75.30
15394;DHT22;7795;47.986;11.868;2024-01-25T05:57:44;10.80;75.30
15394;DHT22;7795;47.986;11.868;2024-01-25T06:00:12;10.80;75.20
15394;DHT22;7795;47.986;11.868;2024-01-25T06:02:38;10.90;75.30
15394;DHT22;7795;47.986;11.868;2024-01-25T06:05:06;10.90;75.20
15394;DHT22;7795;47.986;11.868;2024-01-25T06:07:31;10.80;75.20
15394;DHT22;7795;47.986;11.868;2024-01-25T06:09:57;10.90;75.30
15394;DHT22;7795;47.986;11.868;2024-01-25T06:12:23;10.80;75.20
15394;DHT22;7795;47.986;11.868;2024-01-25T06:14:48;10.80;75.20
15394;DHT22;7795;47.986;11.868;2024-01-25T06:17:14;10.80;75.20
15394;DHT22;7795;47.986;11.868;2024-01-25T06:19:40;10.80;75.30
15394;DHT22;7795;47.986;11.868;2024-01-25T06:22:07;10.80;75.20
15394;DHT22;7795;47.986;11.868;2024-01-25T06:24:33;10.80;75.10
15394;DHT22;7795;47.986;11.868;2024-01-25T06:26:59;10.80;75.10
15394;DHT22;7795;47.986;11.868;2024-01-25T06:29:24;10.80;75.00
15394;DHT22;7795;47.986;11.868;2024-01-25T06:31:50;10.80;75.00
15394;DHT22;7795;47.986;11.868;2024-01-25T06:34:16;10.80;74.80
15394;DHT22;7795;47.986;11.868;2024-01-25T06:36:42;10.80;74.90
15394;DHT22;7795;47.986;11.868;2024-01-25T06:39:09;10.80;74.80
15394;DHT22;7795;47.986;11.868;2024-01-25T06:41:35;10.80;74.70
15394;DHT22;7795;47.986;11.868;2024-01-25T06:44:01;10.80;74.60
15394;DHT22;7795;47.986;11.868;2024-01-25T06:46:28;10.70;74.60
15394;DHT22;7795;47.986;11.868;2024-01-25T06:48:54;10.70;74.50
15394;DHT22;7795;47.986;11.868;2024-01-25T06:51:19;10.70;74.50
15394;DHT22;7795;47.986;11.868;2024-01-25T06:53:45;10.70;74.60
15394;DHT22;7795;47.986;11.868;2024-01-25T06:56:12;10.70;74.40
15394;DHT22;7795;47.986;11.868;2024-01-25T06:58:38;10.70;74.40
15394;DHT22;7795;47.986;11.868;2024-01-25T07:01:04;10.70;74.30
15394;DHT22;7795;47.986;11.868;2024-01-25T07:03:32;10.70;74.30
15394;DHT22;7795;47.986;11.868;2024-01-25T07:05:59;10.70;74.30
15394;DHT22;7795;47.986;11.868;2024-01-25T07:08:24;10.70;74.50
15394;DHT22;7795;47.986;11.868;2024-01-25T07:10:51;10.70;74.40
15394;DHT22;7795;47.986;11.868;2024-01-25T07:13:18;10.70;74.30
15394;DHT22;7795;47.986;11.868;2024-01-25T07:15:44;10.70;74.30
15394;DHT22;7795;47.986;11.868;2024-01-25T07:18:10;10.70;74.30
15394;DHT22;7795;47.986;11.868;2024-01-25T07:20:36;10.70;74.20
15394;DHT22;7795;47.986;11.868;2024-01-25T07:23:02;10.70;74.30
15394;DHT22;7795;47.986;11.868;2024-01-25T07:25:28;10.70;74.20
15394;DHT22;7795;47.986;11.868;2024-01-25T07:27:54;10.70;74.20
15394;DHT22;7795;47.986;11.868;2024-01-25T07:30:21;10.70;74.20
15394;DHT22;7795;47.986;11.868;2024-01-25T07:32:47;10.70;74.20
15394;DHT22;7795;47.986;11.868;2024-01-25T07:35:15;10.60;74.10
15394;DHT22;7795;47.986;11.868;2024-01-25T07:37:41;10.70;74.30
15394;DHT22;7795;47.986;11.868;2024-01-25T07:40:08;10.70;74.30
15394;DHT22;7795;47.986;11.868;2024-01-25T07:42:34;10.60;74.30
15394;DHT22;7795;47.986;11.868;2024-01-25T07:45:00;10.60;74.30
15394;DHT22;7795;47.986;11.868;2024-01-25T07:47:27;10.70;74.40
15394;DHT22;7795;47.986;11.868;2024-01-25T07:49:53;10.60;74.30
15394;DHT22;7795;47.986;11.868;2024-01-25T07:52:19;10.60;74.30
15394;DHT22;7795;47.986;11.868;2024-01-25T07:54:44;10.60;74.30
15394;DHT22;7795;47.986;11.868;2024-01-25T07:57:10;10.70;74.40
15394;DHT22;7795;47.986;11.868;2024-01-25T07:59:36;10.70;74.40
15394;DHT22;7795;47.986;11.868;2024-01-25T08:02:03;10.70;74.40
15394;DHT22;7795;47.986;11.868;2024-01-25T08:04:30;10.70;74.40
15394;DHT22;7795;47.986;11.868;2024-01-25T08:06:56;10.70;74.40
15394;DHT22;7795;47.986;11.868;2024-01-25T08:09:21;10.70;74.40
15394;DHT22;7795;47.986;11.868;2024-01-25T08:11:47;10.70;74.30
15394;DHT22;7795;47.986;11.868;2024-01-25T08:14:13;10.70;74.20
15394;DHT22;7795;47.986;11.868;2024-01-25T08:16:39;10.80;75.00
15394;DHT22;7795;47.986;11.868;2024-01-25T08:19:05;10.80;74.20
15394;DHT22;7795;47.986;11.868;2024-01-25T08:21:32;10.80;74.10
15394;DHT22;7795;47.986;11.868;2024-01-25T08:23:58;10.80;74.00
15394;DHT22;7795;47.986;11.868;2024-01-25T08:26:23;10.80;73.80
15394;DHT22;7795;47.986;11.868;2024-01-25T08:28:49;10.90;73.70
15394;DHT22;7795;47.986;11.868;2024-01-25T08:31:15;10.80;73.40
15394;DHT22;7795;47.986;11.868;2024-01-25T08:33:40;10.90;73.30
15394;DHT22;7795;47.986;11.868;2024-01-25T08:36:09;10.90;73.30
15394;DHT22;7795;47.986;11.868;2024-01-25T08:38:36;10.90;73.20
15394;DHT22;7795;47.986;11.868;2024-01-25T08:41:02;10.90;72.80
15394;DHT22;7795;47.986;11.868;2024-01-25T08:43:28;10.90;72.70
15394;DHT22;7795;47.986;11.868;2024-01-25T08:45:54;10.90;73.40
15394;DHT22;7795;47.986;11.868;2024-01-25T08:48:20;10.90;72.70
15394;DHT22;7795;47.986;11.868;2024-01-25T08:50:46;10.90;72.70
15394;DHT22;7795;47.986;11.868;2024-01-25T08:53:12;11.00;72.50
15394;DHT22;7795;47.986;11.868;2024-01-25T08:55:40;11.00;72.10
15394;DHT22;7795;47.986;11.868;2024-01-25T08:58:06;11.10;72.20
15394;DHT22;7795;47.986;11.868;2024-01-25T09:00:31;11.00;72.30
15394;DHT22;7795;47.986;11.868;2024-01-25T09:02:57;11.10;72.20
15394;DHT22;7795;47.986;11.868;2024-01-25T09:05:23;11.10;72.10
15394;DHT22;7795;47.986;11.868;2024-01-25T09:07:48;11.10;71.70
15394;DHT22;7795;47.986;11.868;2024-01-25T09:10:16;11.10;71.50
15394;DHT22;7795;47.986;11.868;2024-01-25T09:12:43;11.10;71.50
15394;DHT22;7795;47.986;11.868;2024-01-25T09:15:09;11.20;71.40
15394;DHT22;7795;47.986;11.868;2024-01-25T09:17:36;11.20;71.10
15394;DHT22;7795;47.986;11.868;2024-01-25T09:20:02;11.20;70.80
15394;DHT22;7795;47.986;11.868;2024-01-25T09:22:28;11.30;70.80
15394;DHT22;7795;47.986;11.868;2024-01-25T09:24:54;11.30;70.70
15394;DHT22;7795;47.986;11.868;2024-01-25T09:27:20;11.30;70.60
15394;DHT22;7795;47.986;11.868;2024-01-25T09:29:47;11.30;70.50
15394;DHT22;7795;47.986;11.868;2024-01-25T09:32:12;11.30;70.50
15394;DHT22;7795;47.986;11.868;2024-01-25T09:34:38;11.40;70.70
15394;DHT22;7795;47.986;11.868;2024-01-25T09:37:04;11.40;70.40
15394;DHT22;7795;47.986;11.868;2024-01-25T09:39:31;11.40;71.00
15394;DHT22;7795;47.986;11.868;2024-01-25T09:41:56;11.40;70.00
15394;DHT22;7795;47.986;11.868;2024-01-25T09:44:23;11.40;70.00
15394;DHT22;7795;47.986;11.868;2024-01-25T09:46:51;11.40;70.10
15394;DHT22;7795;47.986;11.868;2024-01-25T09:49:17;11.50;69.90
15394;DHT22;7795;47.986;11.868;2024-01-25T09:51:45;11.50;69.80
15394;DHT22;7795;47.986;11.868;2024-01-25T09:54:11;11.50;69.50
15394;DHT22;7795;47.986;11.868;2024-01-25T09:56:36;11.50;69.70
15394;DHT22;7795;47.986;11.868;2024-01-25T09:59:03;11.50;70.00
15394;DHT22;7795;47.986;11.868;2024-01-25T10:01:30;11.50;70.10
15394;DHT22;7795;47.986;11.868;2024-01-25T10:03:57;11.60;70.20
15394;DHT22;7795;47.986;11.868;2024-01-25T10:06:23;11.60;70.10
15394;DHT22;7795;47.986;11.868;2024-01-25T10:08:49;11.60;69.90
15394;DHT22;7795;47.986;11.868;2024-01-25T10:11:15;11.60;69.70
15394;DHT22;7795;47.986;11.868;2024-01-25T10:13:41;11.60;69.50
15394;DHT22;7795;47.986;11.868;2024-01-25T10:16:10;11.60;69.50
15394;DHT22;7795;47.986;11.868;2024-01-25T10:18:36;11.70;69.50
15394;DHT22;7795;47.986;11.868;2024-01-25T10:21:03;11.70;69.50
15394;DHT22;7795;47.986;11.868;2024-01-25T10:23:29;11.70;69.20
15394;DHT22;7795;47.986;11.868;2024-01-25T10:25:56;11.70;69.40
15394;DHT22;7795;47.986;11.868;2024-01-25T10:28:23;11.70;69.20
15394;DHT22;7795;47.986;11.868;2024-01-25T10:30:50;11.80;69.30
15394;DHT22;7795;47.986;11.868;2024-01-25T10:33:17;11.80;69.30
15394;DHT22;7795;47.986;11.868;2024-01-25T10:35:44;11.80;69.30
15394;DHT22;7795;47.986;11.868;2024-01-25T10:38:17;11.80;69.00
15394;DHT22;7795;47.986;11.868;2024-01-25T10:40:43;11.80;69.00
15394;DHT22;7795;47.986;11.868;2024-01-25T10:43:09;11.80;69.20
15394;DHT22;7795;47.986;11.868;2024-01-25T10:45:35;11.80;69.30
15394;DHT22;7795;47.986;11.868;2024-01-25T10:48:03;11.90;69.30
15394;DHT22;7795;47.986;11.868;2024-01-25T10:50:28;11.90;69.10
15394;DHT22;7795;47.986;11.868;2024-01-25T10:52:54;11.90;69.90
15394;DHT22;7795;47.986;11.868;2024-01-25T10:55:22;11.90;69.10
15394;DHT22;7795;47.986;11.868;2024-01-25T10:57:48;12.00;68.90
15394;DHT22;7795;47.986;11.868;2024-01-25T11:00:15;12.00;68.90
15394;DHT22;7795;47.986;11.868;2024-01-25T11:02:42;12.00;68.70
15394;DHT22;7795;47.986;11.868;2024-01-25T11:05:10;12.00;68.70
15394;DHT22;7795;47.986;11.868;2024-01-25T11:07:44;12.00;68.80
15394;DHT22;7795;47.986;11.868;2024-01-25T11:10:14;12.10;68.70
15394;DHT22;7795;47.986;11.868;2024-01-25T11:12:48;12.10;68.80
15394;DHT22;7795;47.986;11.868;2024-01-25T11:15:19;12.10;68.70
15394;DHT22;7795;47.986;11.868;2024-01-25T11:17:51;12.10;69.00
15394;DHT22;7795;47.986;11.868;2024-01-25T11:20:20;12.20;69.00
15394;DHT22;7795;47.986;11.868;2024-01-25T11:22:46;12.20;69.60
15394;DHT22;7795;47.986;11.868;2024-01-25T11:25:13;12.30;69.50
15394;DHT22;7795;47.986;11.868;2024-01-25T11:27:42;12.30;68.20
15394;DHT22;7795;47.986;11.868;2024-01-25T11:30:10;12.40;68.50
15394;DHT22;7795;47.986;11.868;2024-01-25T11:32:38;12.50;67.50
15394;DHT22;7795;47.986;11.868;2024-01-25T11:35:05;12.50;67.50
15394;DHT22;7795;47.986;11.868;2024-01-25T11:37:34;12.60;67.40
15394;DHT22;7795;47.986;11.868;2024-01-25T11:39:59;12.60;67.00
15394;DHT22;7795;47.986;11.868;2024-01-25T11:42:25;12.60;66.20
15394;DHT22;7795;47.986;11.868;2024-01-25T11:44:51;12.70;66.00
15394;DHT22;7795;47.986;11.868;2024-01-25T11:47:18;12.70;65.60
15394;DHT22;7795;47.986;11.868;2024-01-25T11:49:45;12.70;65.00
15394;DHT22;7795;47.986;11.868;2024-01-25T11:52:10;12.80;65.60
15394;DHT22;7795;47.986;11.868;2024-01-25T11:54:36;12.80;65.60
15394;DHT22;7795;47.986;11.868;2024-01-25T11:57:02;12.80;65.00
15394;DHT22;7795;47.986;11.868;2024-01-25T11:59:28;12.80;64.30
15394;DHT22;7795;47.986;11.868;2024-01-25T12:01:54;12.80;64.40
15394;DHT22;7795;47.986;11.868;2024-01-25T12:04:21;12.80;64.60
15394;DHT22;7795;47.986;11.868;2024-01-25T12:06:47;12.80;64.40
15394;DHT22;7795;47.986;11.868;2024-01-25T12:09:15;12.70;64.30
15394;DHT22;7795;47.986;11.868;2024-01-25T12:11:41;12.70;64.30
15394;DHT22;7795;47.986;11.868;2024-01-25T12:14:08;12.70;64.30
15394;DHT22;7795;47.986;11.868;2024-01-25T12:16:34;12.70;64.10
15394;DHT22;7795;47.986;11.868;2024-01-25T12:19:00;12.70;64.10
15394;DHT22;7795;47.986;11.868;2024-01-25T12:21:27;12.70;64.00
15394;DHT22;7795;47.986;11.868;2024-01-25T12:23:53;12.70;64.00
15394;DHT22;7795;47.986;11.868;2024-01-25T12:26:19;12.70;64.30
15394;DHT22;7795;47.986;11.868;2024-01-25T12:28:46;12.60;64.10
15394;DHT22;7795;47.986;11.868;2024-01-25T12:31:14;12.60;64.30
15394;DHT22;7795;47.986;11.868;2024-01-25T12:33:42;12.60;64.30
15394;DHT22;7795;47.986;11.868;2024-01-25T12:36:09;12.60;64.30
15394;DHT22;7795;47.986;11.868;2024-01-25T12:38:36;12.60;64.40
15394;DHT22;7795;47.986;11.868;2024-01-25T12:41:01;12.70;64.40
15394;DHT22;7795;47.986;11.868;2024-01-25T12:43:29;12.60;64.70
15394;DHT22;7795;47.986;11.868;2024-01-25T12:45:54;12.70;64.90
15394;DHT22;7795;47.986;11.868;2024-01-25T12:48:20;12.70;64.60
15394;DHT22;7795;47.986;11.868;2024-01-25T12:50:46;12.70;64.60
15394;DHT22;7795;47.986;11.868;2024-01-25T12:53:12;12.70;64.60
15394;DHT22;7795;47.986;11.868;2024-01-25T12:55:40;12.70;64.50
15394;DHT22;7795;47.986;11.868;2024-01-25T12:58:06;12.70;64.30
15394;DHT22;7795;47.986;11.868;2024-01-25T13:00:31;12.80;64.40
15394;DHT22;7795;47.986;11.868;2024-01-25T13:02:58;12.80;64.40
15394;DHT22;7795;47.986;11.868;2024-01-25T13:05:26;12.80;64.40
15394;DHT22;7795;47.986;11.868;2024-01-25T13:07:52;12.80;64.10
15394;DHT22;7795;47.986;11.868;2024-01-25T13:10:18;12.80;64.00
15394;DHT22;7795;47.986;11.868;2024-01-25T13:12:45;12.80;63.80
15394;DHT22;7795;47.986;11.868;2024-01-25T13:15:11;12.80;63.70
15394;DHT22;7795;47.986;11.868;2024-01-25T13:17:37;12.90;64.10
15394;DHT22;7795;47.986;11.868;2024-01-25T13:20:03;12.90;64.00
15394;DHT22;7795;47.986;11.868;2024-01-25T13:22:31;12.90;64.00
15394;DHT22;7795;47.986;11.868;2024-01-25T13:24:58;12.90;64.10
15394;DHT22;7795;47.986;11.868;2024-01-25T13:27:24;13.00;64.20
15394;DHT22;7795;47.986;11.868;2024-01-25T13:29:51;13.00;64.10
15394;DHT22;7795;47.986;11.868;2024-01-25T13:32:17;13.00;64.10
15394;DHT22;7795;47.986;11.868;2024-01-25T13:34:42;13.10;64.10
15394;DHT22;7795;47.986;11.868;2024-01-25T13:37:08;13.10;64.00
15394;DHT22;7795;47.986;11.868;2024-01-25T13:39:34;13.10;64.10
15394;DHT22;7795;47.986;11.868;2024-01-25T13:41:59;13.20;64.30
15394;DHT22;7795;47.986;11.868;2024-01-25T13:44:25;13.20;64.10
15394;DHT22;7795;47.986;11.868;2024-01-25T13:46:52;13.20;64.00
15394;DHT22;7795;47.986;11.868;2024-01-25T13:49:18;13.30;64.00
15394;DHT22;7795;47.986;11.868;2024-01-25T13:51:44;13.30;63.80
15394;DHT22;7795;47.986;11.868;2024-01-25T13:54:10;13.30;63.60
15394;DHT22;7795;47.986;11.868;2024-01-25T13:56:35;13.30;63.60
15394;DHT22;7795;47.986;11.868;2024-01-25T13:59:01;13.30;63.50
15394;DHT22;7795;47.986;11.868;2024-01-25T14:01:27;13.30;63.60
15394;DHT22;7795;47.986;11.868;2024-01-25T14:03:54;13.30;63.60
15394;DHT22;7795;47.986;11.868;2024-01-25T14:06:20;13.30;63.60
15394;DHT22;7795;47.986;11.868;2024-01-25T14:08:45;13.30;63.50
15394;DHT22;7795;47.986;11.868;2024-01-25T14:11:12;13.30;63.80
15394;DHT22;7795;47.986;11.868;2024-01-25T14:13:37;13.30;63.90
15394;DHT22;7795;47.986;11.868;2024-01-25T14:16:03;13.30;64.00
15394;DHT22;7795;47.986;11.868;2024-01-25T14:18:36;13.30;64.00
15394;DHT22;7795;47.986;11.868;2024-01-25T14:21:03;13.30;63.70
15394;DHT22;7795;47.986;11.868;2024-01-25T14:23:29;13.30;64.00
15394;DHT22;7795;47.986;11.868;2024-01-25T14:25:55;13.30;64.10
15394;DHT22;7795;47.986;11.868;2024-01-25T14:28:20;13.30;64.20
15394;DHT22;7795;47.986;11.868;2024-01-25T14:30:47;13.30;64.10
15394;DHT22;7795;47.986;11.868;2024-01-25T14:33:13;13.30;64.10
15394;DHT22;7795;47.986;11.868;2024-01-25T14:35:39;13.30;64.30
15394;DHT22;7795;47.986;11.868;2024-01-25T14:38:06;13.20;64.40
15394;DHT22;7795;47.986;11.868;2024-01-25T14:40:32;13.20;64.40
15394;DHT22;7795;47.986;11.868;2024-01-25T14:42:58;13.20;64.40
15394;DHT22;7795;47.986;11.868;2024-01-25T14:45:24;13.20;64.40
15394;DHT22;7795;47.986;11.868;2024-01-25T14:47:49;13.20;64.40
15394;DHT22;7795;47.986;11.868;2024-01-25T14:50:15;13.20;64.50
15394;DHT22;7795;47.986;11.868;2024-01-25T14:52:41;13.20;64.60
15394;DHT22;7795;47.986;11.868;2024-01-25T14:55:08;13.20;64.60
15394;DHT22;7795;47.986;11.868;2024-01-25T14:57:34;13.20;64.30
15394;DHT22;7795;47.986;11.868;2024-01-25T15:00:00;13.10;64.40
15394;DHT22;7795;47.986;11.868;2024-01-25T15:02:26;13.10;64.40
15394;DHT22;7795;47.986;11.868;2024-01-25T15:04:52;13.10;64.60
15394;DHT22;7795;47.986;11.868;2024-01-25T15:07:17;13.10;64.60
15394;DHT22;7795;47.986;11.868;2024-01-25T15:09:47;13.10;64.60
15394;DHT22;7795;47.986;11.868;2024-01-25T15:12:14;13.10;64.60
15394;DHT22;7795;47.986;11.868;2024-01-25T15:14:40;13.10;64.60
15394;DHT22;7795;47.986;11.868;2024-01-25T15:17:06;13.10;64.60
15394;DHT22;7795;47.986;11.868;2024-01-25T15:19:31;13.00;64.60
15394;DHT22;7795;47.986;11.868;2024-01-25T15:21:57;13.00;64.60
15394;DHT22;7795;47.986;11.868;2024-01-25T15:24:23;13.00;64.70